sensor_id;sensor_type;location;lat;lon;timestamp;P1;durP1;ratioP1;P2;durP2;ratioP2
21727;SDS011;11026;50.560;17.852;2022-12-18T00:02:02;137.77;;;46.45;;
21727;SDS011;11026;50.560;17.852;2022-12-18T00:04:32;115.13;;;42.53;;
21727;SDS011;11026;50.560;17.852;2022-12-18T00:07:00;203.98;;;65.03;;
21727;SDS011;11026;50.560;17.852;2022-12-18T00:09:29;169.98;;;56.97;;
21727;SDS011;11026;50.560;17.852;2022-12-18T00:12:06;208.63;;;100.78;;
21727;SDS011;11026;50.560;17.852;2022-12-18T00:14:41;104.43;;;50.70;;
21727;SDS011;11026;50.560;17.852;2022-12-18T00:17:08;122.90;;;51.53;;
21727;SDS011;11026;50.560;17.852;2022-12-18T00:19:36;104.10;;;43.80;;
21727;SDS011;11026;50.560;17.852;2022-12-18T00:22:03;143.95;;;58.05;;
21727;SDS011;11026;50.560;17.852;2022-12-18T00:24:37;104.78;;;42.55;;
21727;SDS011;11026;50.560;17.852;2022-12-18T00:27:05;111.55;;;43.60;;
21727;SDS011;11026;50.560;17.852;2022-12-18T00:29:32;83.40;;;35.53;;
21727;SDS011;11026;50.560;17.852;2022-12-18T00:32:00;96.45;;;43.22;;
21727;SDS011;11026;50.560;17.852;2022-12-18T00:34:27;89.18;;;39.00;;
21727;SDS011;11026;50.560;17.852;2022-12-18T00:36:55;183.95;;;68.72;;
21727;SDS011;11026;50.560;17.852;2022-12-18T00:39:22;110.88;;;45.00;;
21727;SDS011;11026;50.560;17.852;2022-12-18T00:41:50;91.47;;;38.72;;
21727;SDS011;11026;50.560;17.852;2022-12-18T00:44:36;86.88;;;39.38;;
21727;SDS011;11026;50.560;17.852;2022-12-18T00:47:03;268.65;;;163.90;;
21727;SDS011;11026;50.560;17.852;2022-12-18T00:49:31;92.30;;;40.90;;
21727;SDS011;11026;50.560;17.852;2022-12-18T00:51:58;101.80;;;44.72;;
21727;SDS011;11026;50.560;17.852;2022-12-18T00:54:26;211.55;;;79.20;;
21727;SDS011;11026;50.560;17.852;2022-12-18T00:56:55;245.43;;;88.28;;
21727;SDS011;11026;50.560;17.852;2022-12-18T00:59:22;90.60;;;39.97;;
21727;SDS011;11026;50.560;17.852;2022-12-18T01:01:50;90.53;;;39.72;;
21727;SDS011;11026;50.560;17.852;2022-12-18T01:04:17;87.50;;;37.83;;
21727;SDS011;11026;50.560;17.852;2022-12-18T01:06:45;82.68;;;37.35;;
21727;SDS011;11026;50.560;17.852;2022-12-18T01:09:12;84.25;;;37.65;;
21727;SDS011;11026;50.560;17.852;2022-12-18T01:11:40;82.25;;;36.75;;
21727;SDS011;11026;50.560;17.852;2022-12-18T01:14:07;89.32;;;39.58;;
21727;SDS011;11026;50.560;17.852;2022-12-18T01:16:35;84.10;;;37.10;;
21727;SDS011;11026;50.560;17.852;2022-12-18T01:19:02;84.10;;;37.28;;
21727;SDS011;11026;50.560;17.852;2022-12-18T01:21:30;99.10;;;42.80;;
21727;SDS011;11026;50.560;17.852;2022-12-18T01:23:57;85.47;;;38.08;;
21727;SDS011;11026;50.560;17.852;2022-12-18T01:26:25;101.25;;;43.22;;
21727;SDS011;11026;50.560;17.852;2022-12-18T01:28:54;101.20;;;46.50;;
21727;SDS011;11026;50.560;17.852;2022-12-18T01:31:28;99.40;;;42.08;;
21727;SDS011;11026;50.560;17.852;2022-12-18T01:34:00;82.65;;;37.78;;
21727;SDS011;11026;50.560;17.852;2022-12-18T01:36:30;90.63;;;39.50;;
21727;SDS011;11026;50.560;17.852;2022-12-18T01:38:59;96.40;;;39.83;;
21727;SDS011;11026;50.560;17.852;2022-12-18T01:41:29;97.75;;;45.38;;
21727;SDS011;11026;50.560;17.852;2022-12-18T01:50:16;87.28;;;39.10;;
21727;SDS011;11026;50.560;17.852;2022-12-18T01:52:50;98.55;;;39.42;;
21727;SDS011;11026;50.560;17.852;2022-12-18T01:57:55;87.68;;;39.45;;
21727;SDS011;11026;50.560;17.852;2022-12-18T02:00:24;87.68;;;39.47;;
21727;SDS011;11026;50.560;17.852;2022-12-18T02:02:54;89.22;;;41.75;;
21727;SDS011;11026;50.560;17.852;2022-12-18T02:08:18;90.40;;;40.55;;
21727;SDS011;11026;50.560;17.852;2022-12-18T02:19:37;96.43;;;41.85;;
21727;SDS011;11026;50.560;17.852;2022-12-18T02:24:59;93.45;;;40.00;;
21727;SDS011;11026;50.560;17.852;2022-12-18T02:27:37;93.68;;;38.50;;
21727;SDS011;11026;50.560;17.852;2022-12-18T02:30:07;86.82;;;38.60;;
21727;SDS011;11026;50.560;17.852;2022-12-18T02:32:37;82.32;;;37.05;;
21727;SDS011;11026;50.560;17.852;2022-12-18T02:35:08;91.43;;;45.10;;
21727;SDS011;11026;50.560;17.852;2022-12-18T02:37:40;95.80;;;42.83;;
21727;SDS011;11026;50.560;17.852;2022-12-18T02:40:11;86.00;;;40.65;;
21727;SDS011;11026;50.560;17.852;2022-12-18T02:42:41;88.78;;;39.65;;
21727;SDS011;11026;50.560;17.852;2022-12-18T02:45:08;83.25;;;37.75;;
21727;SDS011;11026;50.560;17.852;2022-12-18T02:47:37;84.80;;;37.10;;
21727;SDS011;11026;50.560;17.852;2022-12-18T02:50:18;83.53;;;36.22;;
21727;SDS011;11026;50.560;17.852;2022-12-18T03:01:35;81.72;;;38.85;;
21727;SDS011;11026;50.560;17.852;2022-12-18T03:04:27;89.22;;;41.17;;
21727;SDS011;11026;50.560;17.852;2022-12-18T03:07:01;90.07;;;39.35;;
21727;SDS011;11026;50.560;17.852;2022-12-18T03:09:35;91.22;;;40.20;;
21727;SDS011;11026;50.560;17.852;2022-12-18T03:12:51;77.78;;;36.85;;
21727;SDS011;11026;50.560;17.852;2022-12-18T03:15:04;84.53;;;37.55;;
21727;SDS011;11026;50.560;17.852;2022-12-18T03:17:50;83.28;;;37.45;;
21727;SDS011;11026;50.560;17.852;2022-12-18T03:20:23;76.25;;;35.47;;
21727;SDS011;11026;50.560;17.852;2022-12-18T03:22:55;83.68;;;35.92;;
21727;SDS011;11026;50.560;17.852;2022-12-18T03:25:29;87.85;;;36.20;;
21727;SDS011;11026;50.560;17.852;2022-12-18T03:27:58;87.55;;;39.35;;
21727;SDS011;11026;50.560;17.852;2022-12-18T03:30:28;83.85;;;38.92;;
21727;SDS011;11026;50.560;17.852;2022-12-18T03:35:42;85.60;;;36.30;;
21727;SDS011;11026;50.560;17.852;2022-12-18T03:38:09;78.82;;;37.08;;
21727;SDS011;11026;50.560;17.852;2022-12-18T03:43:35;77.35;;;36.15;;
21727;SDS011;11026;50.560;17.852;2022-12-18T03:46:17;83.75;;;37.90;;
21727;SDS011;11026;50.560;17.852;2022-12-18T03:49:10;86.43;;;37.30;;
21727;SDS011;11026;50.560;17.852;2022-12-18T03:54:36;85.88;;;37.25;;
21727;SDS011;11026;50.560;17.852;2022-12-18T03:57:06;77.50;;;36.25;;
21727;SDS011;11026;50.560;17.852;2022-12-18T03:59:39;78.03;;;36.53;;
21727;SDS011;11026;50.560;17.852;2022-12-18T04:02:08;88.18;;;36.13;;
21727;SDS011;11026;50.560;17.852;2022-12-18T04:04:36;77.78;;;35.70;;
21727;SDS011;11026;50.560;17.852;2022-12-18T04:07:06;75.88;;;35.80;;
21727;SDS011;11026;50.560;17.852;2022-12-18T04:09:34;78.30;;;36.05;;
21727;SDS011;11026;50.560;17.852;2022-12-18T04:12:05;72.90;;;33.20;;
21727;SDS011;11026;50.560;17.852;2022-12-18T04:14:34;71.95;;;34.60;;
21727;SDS011;11026;50.560;17.852;2022-12-18T04:17:02;76.72;;;34.63;;
21727;SDS011;11026;50.560;17.852;2022-12-18T04:19:30;74.40;;;35.67;;
21727;SDS011;11026;50.560;17.852;2022-12-18T04:21:58;72.78;;;34.88;;
21727;SDS011;11026;50.560;17.852;2022-12-18T04:24:26;75.15;;;37.47;;
21727;SDS011;11026;50.560;17.852;2022-12-18T04:26:53;76.53;;;35.85;;
21727;SDS011;11026;50.560;17.852;2022-12-18T04:29:27;79.97;;;36.50;;
21727;SDS011;11026;50.560;17.852;2022-12-18T04:31:55;79.68;;;36.08;;
21727;SDS011;11026;50.560;17.852;2022-12-18T04:34:22;76.05;;;35.42;;
21727;SDS011;11026;50.560;17.852;2022-12-18T04:36:49;74.35;;;35.85;;
21727;SDS011;11026;50.560;17.852;2022-12-18T04:39:17;77.85;;;34.75;;
21727;SDS011;11026;50.560;17.852;2022-12-18T04:41:45;76.32;;;37.03;;
21727;SDS011;11026;50.560;17.852;2022-12-18T04:44:13;79.07;;;35.88;;
21727;SDS011;11026;50.560;17.852;2022-12-18T04:46:40;83.28;;;36.80;;
21727;SDS011;11026;50.560;17.852;2022-12-18T04:49:10;80.00;;;35.95;;
21727;SDS011;11026;50.560;17.852;2022-12-18T04:51:38;72.57;;;35.28;;
21727;SDS011;11026;50.560;17.852;2022-12-18T04:54:05;74.28;;;35.13;;
21727;SDS011;11026;50.560;17.852;2022-12-18T04:56:33;81.53;;;36.45;;
21727;SDS011;11026;50.560;17.852;2022-12-18T04:59:00;72.60;;;34.50;;
21727;SDS011;11026;50.560;17.852;2022-12-18T05:01:29;72.22;;;34.97;;
21727;SDS011;11026;50.560;17.852;2022-12-18T05:04:00;72.55;;;35.75;;
21727;SDS011;11026;50.560;17.852;2022-12-18T05:06:28;73.15;;;35.22;;
21727;SDS011;11026;50.560;17.852;2022-12-18T05:08:57;75.07;;;34.72;;
21727;SDS011;11026;50.560;17.852;2022-12-18T05:11:24;70.88;;;35.05;;
21727;SDS011;11026;50.560;17.852;2022-12-18T05:13:53;73.40;;;34.60;;
21727;SDS011;11026;50.560;17.852;2022-12-18T05:16:21;70.80;;;35.20;;
21727;SDS011;11026;50.560;17.852;2022-12-18T05:18:50;78.60;;;37.85;;
21727;SDS011;11026;50.560;17.852;2022-12-18T05:21:17;79.65;;;37.60;;
21727;SDS011;11026;50.560;17.852;2022-12-18T05:23:45;70.88;;;34.65;;
21727;SDS011;11026;50.560;17.852;2022-12-18T05:26:17;73.28;;;34.67;;
21727;SDS011;11026;50.560;17.852;2022-12-18T05:28:46;60.78;;;31.35;;
21727;SDS011;11026;50.560;17.852;2022-12-18T05:31:13;76.38;;;37.80;;
21727;SDS011;11026;50.560;17.852;2022-12-18T05:33:41;77.82;;;37.63;;
21727;SDS011;11026;50.560;17.852;2022-12-18T05:36:10;74.20;;;34.85;;
21727;SDS011;11026;50.560;17.852;2022-12-18T05:38:38;72.63;;;33.85;;
21727;SDS011;11026;50.560;17.852;2022-12-18T05:41:06;73.80;;;35.55;;
21727;SDS011;11026;50.560;17.852;2022-12-18T05:43:35;77.20;;;36.63;;
21727;SDS011;11026;50.560;17.852;2022-12-18T05:46:04;76.82;;;36.55;;
21727;SDS011;11026;50.560;17.852;2022-12-18T05:48:33;75.53;;;36.55;;
21727;SDS011;11026;50.560;17.852;2022-12-18T05:51:04;71.38;;;35.20;;
21727;SDS011;11026;50.560;17.852;2022-12-18T05:53:36;71.30;;;34.88;;
21727;SDS011;11026;50.560;17.852;2022-12-18T05:56:06;69.75;;;35.38;;
21727;SDS011;11026;50.560;17.852;2022-12-18T05:58:36;76.43;;;35.65;;
21727;SDS011;11026;50.560;17.852;2022-12-18T06:01:15;71.28;;;37.85;;
21727;SDS011;11026;50.560;17.852;2022-12-18T06:03:44;72.63;;;35.90;;
21727;SDS011;11026;50.560;17.852;2022-12-18T06:06:13;72.00;;;34.90;;
21727;SDS011;11026;50.560;17.852;2022-12-18T06:08:43;72.40;;;35.60;;
21727;SDS011;11026;50.560;17.852;2022-12-18T06:11:15;68.20;;;33.10;;
21727;SDS011;11026;50.560;17.852;2022-12-18T06:13:45;68.88;;;31.70;;
21727;SDS011;11026;50.560;17.852;2022-12-18T06:16:13;66.57;;;32.75;;
21727;SDS011;11026;50.560;17.852;2022-12-18T06:18:40;69.93;;;34.65;;
21727;SDS011;11026;50.560;17.852;2022-12-18T06:21:08;67.57;;;32.67;;
21727;SDS011;11026;50.560;17.852;2022-12-18T06:23:36;71.00;;;34.38;;
21727;SDS011;11026;50.560;17.852;2022-12-18T06:26:12;66.40;;;31.85;;
21727;SDS011;11026;50.560;17.852;2022-12-18T06:28:40;66.13;;;32.60;;
21727;SDS011;11026;50.560;17.852;2022-12-18T06:31:08;66.70;;;33.55;;
21727;SDS011;11026;50.560;17.852;2022-12-18T06:33:41;68.90;;;32.45;;
21727;SDS011;11026;50.560;17.852;2022-12-18T06:36:10;65.15;;;32.25;;
21727;SDS011;11026;50.560;17.852;2022-12-18T06:38:39;72.05;;;33.05;;
21727;SDS011;11026;50.560;17.852;2022-12-18T06:41:16;67.15;;;32.80;;
21727;SDS011;11026;50.560;17.852;2022-12-18T06:43:45;64.57;;;31.90;;
21727;SDS011;11026;50.560;17.852;2022-12-18T06:46:13;75.72;;;36.88;;
21727;SDS011;11026;50.560;17.852;2022-12-18T06:48:40;73.57;;;37.53;;
21727;SDS011;11026;50.560;17.852;2022-12-18T06:51:08;74.15;;;35.85;;
21727;SDS011;11026;50.560;17.852;2022-12-18T06:53:35;68.10;;;32.75;;
21727;SDS011;11026;50.560;17.852;2022-12-18T06:56:04;63.03;;;32.42;;
21727;SDS011;11026;50.560;17.852;2022-12-18T06:58:36;63.72;;;33.17;;
21727;SDS011;11026;50.560;17.852;2022-12-18T07:01:05;63.17;;;31.48;;
21727;SDS011;11026;50.560;17.852;2022-12-18T07:03:34;64.07;;;31.63;;
21727;SDS011;11026;50.560;17.852;2022-12-18T07:06:04;65.93;;;30.45;;
21727;SDS011;11026;50.560;17.852;2022-12-18T07:08:32;64.65;;;31.17;;
21727;SDS011;11026;50.560;17.852;2022-12-18T07:11:02;67.78;;;33.17;;
21727;SDS011;11026;50.560;17.852;2022-12-18T07:13:31;66.03;;;32.13;;
21727;SDS011;11026;50.560;17.852;2022-12-18T07:16:16;66.93;;;32.90;;
21727;SDS011;11026;50.560;17.852;2022-12-18T07:18:53;61.70;;;31.80;;
21727;SDS011;11026;50.560;17.852;2022-12-18T07:21:23;69.55;;;30.92;;
21727;SDS011;11026;50.560;17.852;2022-12-18T07:23:51;67.88;;;31.50;;
21727;SDS011;11026;50.560;17.852;2022-12-18T07:26:20;69.38;;;30.33;;
21727;SDS011;11026;50.560;17.852;2022-12-18T07:28:49;62.85;;;31.80;;
21727;SDS011;11026;50.560;17.852;2022-12-18T07:31:18;66.68;;;32.13;;
21727;SDS011;11026;50.560;17.852;2022-12-18T07:33:47;133.63;;;32.55;;
21727;SDS011;11026;50.560;17.852;2022-12-18T07:36:17;63.80;;;30.67;;
21727;SDS011;11026;50.560;17.852;2022-12-18T07:38:46;59.08;;;29.63;;
21727;SDS011;11026;50.560;17.852;2022-12-18T07:41:17;64.93;;;32.00;;
21727;SDS011;11026;50.560;17.852;2022-12-18T07:43:45;65.25;;;31.15;;
21727;SDS011;11026;50.560;17.852;2022-12-18T07:46:14;61.17;;;29.17;;
21727;SDS011;11026;50.560;17.852;2022-12-18T07:48:43;62.53;;;28.88;;
21727;SDS011;11026;50.560;17.852;2022-12-18T07:51:16;66.13;;;31.10;;
21727;SDS011;11026;50.560;17.852;2022-12-18T07:53:45;63.88;;;30.13;;
21727;SDS011;11026;50.560;17.852;2022-12-18T07:56:19;64.50;;;30.88;;
21727;SDS011;11026;50.560;17.852;2022-12-18T07:58:53;63.25;;;30.00;;
21727;SDS011;11026;50.560;17.852;2022-12-18T08:01:21;61.35;;;30.38;;
21727;SDS011;11026;50.560;17.852;2022-12-18T08:03:48;68.22;;;32.13;;
21727;SDS011;11026;50.560;17.852;2022-12-18T08:06:18;66.63;;;31.02;;
21727;SDS011;11026;50.560;17.852;2022-12-18T08:08:50;65.10;;;31.65;;
21727;SDS011;11026;50.560;17.852;2022-12-18T08:11:19;66.97;;;30.08;;
21727;SDS011;11026;50.560;17.852;2022-12-18T08:13:46;69.25;;;31.88;;
21727;SDS011;11026;50.560;17.852;2022-12-18T08:16:16;63.20;;;30.92;;
21727;SDS011;11026;50.560;17.852;2022-12-18T08:18:44;70.43;;;31.30;;
21727;SDS011;11026;50.560;17.852;2022-12-18T08:21:19;68.25;;;31.40;;
21727;SDS011;11026;50.560;17.852;2022-12-18T08:23:52;66.40;;;32.00;;
21727;SDS011;11026;50.560;17.852;2022-12-18T08:26:20;66.50;;;31.08;;
21727;SDS011;11026;50.560;17.852;2022-12-18T08:28:51;72.22;;;33.60;;
21727;SDS011;11026;50.560;17.852;2022-12-18T08:31:21;55.42;;;25.42;;
21727;SDS011;11026;50.560;17.852;2022-12-18T08:33:51;67.70;;;32.90;;
21727;SDS011;11026;50.560;17.852;2022-12-18T08:36:21;68.10;;;33.15;;
21727;SDS011;11026;50.560;17.852;2022-12-18T08:38:51;75.18;;;36.08;;
21727;SDS011;11026;50.560;17.852;2022-12-18T08:41:19;71.40;;;34.58;;
21727;SDS011;11026;50.560;17.852;2022-12-18T08:43:47;79.15;;;38.58;;
21727;SDS011;11026;50.560;17.852;2022-12-18T08:46:36;80.80;;;38.20;;
21727;SDS011;11026;50.560;17.852;2022-12-18T08:49:06;81.03;;;38.25;;
21727;SDS011;11026;50.560;17.852;2022-12-18T08:51:34;82.30;;;38.42;;
21727;SDS011;11026;50.560;17.852;2022-12-18T08:54:03;78.75;;;36.28;;
21727;SDS011;11026;50.560;17.852;2022-12-18T08:56:34;82.35;;;36.47;;
21727;SDS011;11026;50.560;17.852;2022-12-18T08:59:01;77.32;;;36.15;;
21727;SDS011;11026;50.560;17.852;2022-12-18T09:01:28;69.47;;;33.85;;
21727;SDS011;11026;50.560;17.852;2022-12-18T09:03:56;76.68;;;35.15;;
21727;SDS011;11026;50.560;17.852;2022-12-18T09:06:23;78.93;;;35.67;;
21727;SDS011;11026;50.560;17.852;2022-12-18T09:08:51;79.15;;;34.83;;
21727;SDS011;11026;50.560;17.852;2022-12-18T09:11:20;74.82;;;35.83;;
21727;SDS011;11026;50.560;17.852;2022-12-18T09:13:51;89.88;;;40.08;;
21727;SDS011;11026;50.560;17.852;2022-12-18T09:16:19;95.68;;;42.92;;
21727;SDS011;11026;50.560;17.852;2022-12-18T09:18:47;96.53;;;43.97;;
21727;SDS011;11026;50.560;17.852;2022-12-18T09:21:20;95.35;;;42.60;;
21727;SDS011;11026;50.560;17.852;2022-12-18T09:23:51;86.53;;;42.17;;
21727;SDS011;11026;50.560;17.852;2022-12-18T09:26:20;91.05;;;41.28;;
21727;SDS011;11026;50.560;17.852;2022-12-18T09:28:48;92.50;;;43.08;;
21727;SDS011;11026;50.560;17.852;2022-12-18T09:31:17;102.10;;;48.20;;
21727;SDS011;11026;50.560;17.852;2022-12-18T09:33:47;103.97;;;46.28;;
21727;SDS011;11026;50.560;17.852;2022-12-18T09:36:15;105.45;;;46.67;;
21727;SDS011;11026;50.560;17.852;2022-12-18T09:38:44;109.65;;;48.08;;
21727;SDS011;11026;50.560;17.852;2022-12-18T09:44:03;105.18;;;46.20;;
21727;SDS011;11026;50.560;17.852;2022-12-18T09:46:49;103.50;;;47.38;;
21727;SDS011;11026;50.560;17.852;2022-12-18T09:49:26;103.80;;;43.03;;
21727;SDS011;11026;50.560;17.852;2022-12-18T09:51:59;103.65;;;43.53;;
21727;SDS011;11026;50.560;17.852;2022-12-18T09:55:00;110.90;;;49.58;;
21727;SDS011;11026;50.560;17.852;2022-12-18T09:57:32;110.55;;;48.25;;
21727;SDS011;11026;50.560;17.852;2022-12-18T10:00:06;108.95;;;48.53;;
21727;SDS011;11026;50.560;17.852;2022-12-18T10:02:42;108.55;;;46.42;;
21727;SDS011;11026;50.560;17.852;2022-12-18T10:08:08;110.88;;;49.28;;
21727;SDS011;11026;50.560;17.852;2022-12-18T10:10:46;110.70;;;47.10;;
21727;SDS011;11026;50.560;17.852;2022-12-18T10:15:52;103.35;;;44.20;;
21727;SDS011;11026;50.560;17.852;2022-12-18T10:21:01;89.78;;;38.88;;
21727;SDS011;11026;50.560;17.852;2022-12-18T10:23:52;97.20;;;43.55;;
21727;SDS011;11026;50.560;17.852;2022-12-18T10:26:28;102.38;;;43.50;;
21727;SDS011;11026;50.560;17.852;2022-12-18T10:28:59;111.13;;;48.28;;
21727;SDS011;11026;50.560;17.852;2022-12-18T10:31:31;113.90;;;49.97;;
21727;SDS011;11026;50.560;17.852;2022-12-18T10:33:58;108.88;;;50.17;;
21727;SDS011;11026;50.560;17.852;2022-12-18T10:36:27;106.90;;;49.10;;
21727;SDS011;11026;50.560;17.852;2022-12-18T10:39:07;108.85;;;48.47;;
21727;SDS011;11026;50.560;17.852;2022-12-18T10:41:42;100.05;;;44.67;;
21727;SDS011;11026;50.560;17.852;2022-12-18T10:44:19;106.38;;;47.95;;
21727;SDS011;11026;50.560;17.852;2022-12-18T10:46:55;99.93;;;46.88;;
21727;SDS011;11026;50.560;17.852;2022-12-18T10:49:37;97.85;;;44.92;;
21727;SDS011;11026;50.560;17.852;2022-12-18T10:52:22;100.10;;;45.40;;
21727;SDS011;11026;50.560;17.852;2022-12-18T10:54:57;106.72;;;47.05;;
21727;SDS011;11026;50.560;17.852;2022-12-18T10:59:58;94.38;;;44.08;;
21727;SDS011;11026;50.560;17.852;2022-12-18T11:07:48;90.20;;;42.25;;
21727;SDS011;11026;50.560;17.852;2022-12-18T11:10:17;85.15;;;41.08;;
21727;SDS011;11026;50.560;17.852;2022-12-18T11:12:46;92.43;;;42.67;;
21727;SDS011;11026;50.560;17.852;2022-12-18T11:15:21;91.20;;;42.03;;
21727;SDS011;11026;50.560;17.852;2022-12-18T11:17:54;86.35;;;40.15;;
21727;SDS011;11026;50.560;17.852;2022-12-18T11:23:00;71.30;;;35.70;;
21727;SDS011;11026;50.560;17.852;2022-12-18T11:25:30;74.45;;;35.10;;
21727;SDS011;11026;50.560;17.852;2022-12-18T11:36:55;75.28;;;34.15;;
21727;SDS011;11026;50.560;17.852;2022-12-18T11:47:59;72.90;;;34.88;;
21727;SDS011;11026;50.560;17.852;2022-12-18T11:50:49;70.93;;;35.80;;
21727;SDS011;11026;50.560;17.852;2022-12-18T11:53:18;79.63;;;36.83;;
21727;SDS011;11026;50.560;17.852;2022-12-18T11:58:36;78.93;;;37.58;;
21727;SDS011;11026;50.560;17.852;2022-12-18T12:04:16;69.82;;;34.42;;
21727;SDS011;11026;50.560;17.852;2022-12-18T12:12:27;70.85;;;36.17;;
21727;SDS011;11026;50.560;17.852;2022-12-18T12:21:41;71.93;;;35.08;;
21727;SDS011;11026;50.560;17.852;2022-12-18T12:33:15;75.80;;;37.55;;
21727;SDS011;11026;50.560;17.852;2022-12-18T12:38:35;77.93;;;37.00;;
21727;SDS011;11026;50.560;17.852;2022-12-18T12:41:19;71.65;;;34.03;;
21727;SDS011;11026;50.560;17.852;2022-12-18T12:44:13;79.22;;;36.15;;
21727;SDS011;11026;50.560;17.852;2022-12-18T12:46:45;75.18;;;34.28;;
21727;SDS011;11026;50.560;17.852;2022-12-18T12:49:16;73.78;;;36.00;;
21727;SDS011;11026;50.560;17.852;2022-12-18T12:54:38;70.90;;;35.72;;
21727;SDS011;11026;50.560;17.852;2022-12-18T12:57:30;73.38;;;35.15;;
21727;SDS011;11026;50.560;17.852;2022-12-18T13:00:02;71.07;;;33.00;;
21727;SDS011;11026;50.560;17.852;2022-12-18T13:05:33;73.18;;;35.55;;
21727;SDS011;11026;50.560;17.852;2022-12-18T13:08:09;75.68;;;36.78;;
21727;SDS011;11026;50.560;17.852;2022-12-18T13:10:41;80.55;;;37.60;;
21727;SDS011;11026;50.560;17.852;2022-12-18T13:13:13;83.97;;;37.63;;
21727;SDS011;11026;50.560;17.852;2022-12-18T13:16:03;75.88;;;39.42;;
21727;SDS011;11026;50.560;17.852;2022-12-18T13:18:33;78.35;;;36.70;;
21727;SDS011;11026;50.560;17.852;2022-12-18T13:21:02;75.47;;;33.08;;
21727;SDS011;11026;50.560;17.852;2022-12-18T13:23:49;88.55;;;39.10;;
21727;SDS011;11026;50.560;17.852;2022-12-18T13:28:53;88.82;;;39.47;;
21727;SDS011;11026;50.560;17.852;2022-12-18T13:34:18;88.38;;;40.50;;
21727;SDS011;11026;50.560;17.852;2022-12-18T13:36:54;87.13;;;39.42;;
21727;SDS011;11026;50.560;17.852;2022-12-18T13:39:24;86.22;;;40.72;;
21727;SDS011;11026;50.560;17.852;2022-12-18T13:45:35;84.03;;;39.78;;
21727;SDS011;11026;50.560;17.852;2022-12-18T13:48:17;100.97;;;45.45;;
21727;SDS011;11026;50.560;17.852;2022-12-18T13:50:55;88.88;;;41.90;;
21727;SDS011;11026;50.560;17.852;2022-12-18T13:53:31;96.78;;;38.33;;
21727;SDS011;11026;50.560;17.852;2022-12-18T13:56:04;105.45;;;44.90;;
21727;SDS011;11026;50.560;17.852;2022-12-18T13:58:32;121.57;;;47.95;;
21727;SDS011;11026;50.560;17.852;2022-12-18T14:01:00;108.40;;;45.15;;
21727;SDS011;11026;50.560;17.852;2022-12-18T14:03:29;92.88;;;43.25;;
21727;SDS011;11026;50.560;17.852;2022-12-18T14:06:06;95.10;;;44.60;;
21727;SDS011;11026;50.560;17.852;2022-12-18T14:08:37;99.97;;;44.08;;
21727;SDS011;11026;50.560;17.852;2022-12-18T14:11:07;97.85;;;47.70;;
21727;SDS011;11026;50.560;17.852;2022-12-18T14:13:51;112.65;;;47.88;;
21727;SDS011;11026;50.560;17.852;2022-12-18T14:16:19;114.18;;;47.55;;
21727;SDS011;11026;50.560;17.852;2022-12-18T14:18:56;115.07;;;48.65;;
21727;SDS011;11026;50.560;17.852;2022-12-18T14:24:19;121.68;;;51.05;;
21727;SDS011;11026;50.560;17.852;2022-12-18T14:26:49;113.97;;;50.55;;
21727;SDS011;11026;50.560;17.852;2022-12-18T14:32:05;113.35;;;51.53;;
21727;SDS011;11026;50.560;17.852;2022-12-18T14:37:24;126.20;;;54.70;;
21727;SDS011;11026;50.560;17.852;2022-12-18T14:40:01;118.50;;;54.08;;
21727;SDS011;11026;50.560;17.852;2022-12-18T14:48:53;151.43;;;65.20;;
21727;SDS011;11026;50.560;17.852;2022-12-18T14:51:21;202.75;;;76.15;;
21727;SDS011;11026;50.560;17.852;2022-12-18T14:54:26;149.65;;;58.80;;
21727;SDS011;11026;50.560;17.852;2022-12-18T14:56:48;111.35;;;48.58;;
21727;SDS011;11026;50.560;17.852;2022-12-18T14:59:28;107.90;;;47.72;;
21727;SDS011;11026;50.560;17.852;2022-12-18T15:04:38;100.63;;;45.58;;
21727;SDS011;11026;50.560;17.852;2022-12-18T15:09:39;106.60;;;49.10;;
21727;SDS011;11026;50.560;17.852;2022-12-18T15:15:05;109.15;;;49.20;;
21727;SDS011;11026;50.560;17.852;2022-12-18T15:17:58;110.07;;;50.80;;
21727;SDS011;11026;50.560;17.852;2022-12-18T15:20:30;116.93;;;52.13;;
21727;SDS011;11026;50.560;17.852;2022-12-18T15:25:34;129.75;;;58.00;;
21727;SDS011;11026;50.560;17.852;2022-12-18T15:28:13;132.20;;;57.63;;
21727;SDS011;11026;50.560;17.852;2022-12-18T15:31:02;137.93;;;61.30;;
21727;SDS011;11026;50.560;17.852;2022-12-18T15:36:22;143.43;;;60.10;;
21727;SDS011;11026;50.560;17.852;2022-12-18T15:38:53;169.73;;;72.43;;
21727;SDS011;11026;50.560;17.852;2022-12-18T15:41:33;175.40;;;76.63;;
21727;SDS011;11026;50.560;17.852;2022-12-18T15:44:25;180.40;;;77.53;;
21727;SDS011;11026;50.560;17.852;2022-12-18T15:46:53;184.85;;;76.30;;
21727;SDS011;11026;50.560;17.852;2022-12-18T15:49:22;166.50;;;76.50;;
21727;SDS011;11026;50.560;17.852;2022-12-18T15:51:52;151.50;;;70.57;;
21727;SDS011;11026;50.560;17.852;2022-12-18T15:54:26;139.93;;;63.53;;
21727;SDS011;11026;50.560;17.852;2022-12-18T15:57:13;144.60;;;63.80;;
21727;SDS011;11026;50.560;17.852;2022-12-18T15:59:58;138.75;;;65.65;;
21727;SDS011;11026;50.560;17.852;2022-12-18T16:02:26;151.95;;;69.63;;
21727;SDS011;11026;50.560;17.852;2022-12-18T16:05:02;129.48;;;59.47;;
21727;SDS011;11026;50.560;17.852;2022-12-18T16:07:33;128.80;;;58.88;;
21727;SDS011;11026;50.560;17.852;2022-12-18T16:10:01;127.05;;;58.75;;
21727;SDS011;11026;50.560;17.852;2022-12-18T16:12:30;140.45;;;61.03;;
21727;SDS011;11026;50.560;17.852;2022-12-18T16:14:59;146.70;;;66.32;;
21727;SDS011;11026;50.560;17.852;2022-12-18T16:17:35;141.20;;;65.00;;
21727;SDS011;11026;50.560;17.852;2022-12-18T16:20:08;147.63;;;68.10;;
21727;SDS011;11026;50.560;17.852;2022-12-18T16:22:44;154.68;;;69.30;;
21727;SDS011;11026;50.560;17.852;2022-12-18T16:25:23;151.50;;;71.72;;
21727;SDS011;11026;50.560;17.852;2022-12-18T16:27:55;155.98;;;73.78;;
21727;SDS011;11026;50.560;17.852;2022-12-18T16:30:30;164.10;;;78.82;;
21727;SDS011;11026;50.560;17.852;2022-12-18T16:33:04;167.75;;;81.70;;
21727;SDS011;11026;50.560;17.852;2022-12-18T16:35:35;180.70;;;89.95;;
21727;SDS011;11026;50.560;17.852;2022-12-18T16:38:04;177.40;;;84.55;;
21727;SDS011;11026;50.560;17.852;2022-12-18T16:40:33;166.70;;;76.80;;
21727;SDS011;11026;50.560;17.852;2022-12-18T16:43:22;155.80;;;71.18;;
21727;SDS011;11026;50.560;17.852;2022-12-18T16:45:52;185.20;;;84.60;;
21727;SDS011;11026;50.560;17.852;2022-12-18T16:48:24;178.70;;;83.68;;
21727;SDS011;11026;50.560;17.852;2022-12-18T16:51:03;168.30;;;76.72;;
21727;SDS011;11026;50.560;17.852;2022-12-18T16:53:33;153.10;;;72.03;;
21727;SDS011;11026;50.560;17.852;2022-12-18T16:56:02;154.55;;;70.85;;
21727;SDS011;11026;50.560;17.852;2022-12-18T16:58:32;152.35;;;67.53;;
21727;SDS011;11026;50.560;17.852;2022-12-18T17:01:00;152.82;;;71.82;;
21727;SDS011;11026;50.560;17.852;2022-12-18T17:03:27;157.88;;;67.13;;
21727;SDS011;11026;50.560;17.852;2022-12-18T17:05:56;154.55;;;64.90;;